< < Back
Terminal Aerodrome Forecast


Current Version              Previous Versions:   1  2  3  4  5  6  7  8  9  

Terminal Aerodrome Forecast

939
FTUS42 KTAE 300600 AAA
TAFDHN
TAF AMD
KDHN 300602Z 3006/3106 01010G17KT P6SM FEW014 BKN110
     FM300800 36005KT P6SM SCT015 SCT100
     FM301400 36010KT P6SM FEW250
     FM310300 33004KT P6SM SKC=



Latest METAR

212
SAUS70 KWBC 310400 RRF
MTRDHN
METAR KDHN 310353Z AUTO 33005KT 10SM CLR 11/06 A3002 RMK AO2 SLP163
T01060056


USA.gov is the U.S. government's official web portal to all federal, state and local government web resources and services.